Time;durP1;ratioP1;P1;durP2;ratioP2;P2;SDS_P1;SDS_P2;PMS_P1;PMS_P2;Temp;Humidity;BMP_temperature;BMP_pressure;BME280_temperature;BME280_humidity;BME280_pressure;Samples;Min_cycle;Max_cycle;Signal;HPM_P1;HPM_P2
2024/01/11 00:01:21;;;;;;;22.67;14.52;;;;;;;0.36;41.33;103306.66;5000743;28;97265;-70
2024/01/11 00:03:48;;;;;;;20.67;12.57;;;;;;;0.35;41.38;103309.28;5000591;28;96809;-70
2024/01/11 00:06:15;;;;;;;22.85;12.52;;;;;;;0.32;41.42;103305.72;4999543;28;99873;-70
2024/01/11 00:08:42;;;;;;;20.60;11.98;;;;;;;0.31;41.42;103303.97;4989269;28;98138;-69
2024/01/11 00:11:08;;;;;;;22.42;12.88;;;;;;;0.31;41.26;103303.06;4996024;28;97142;-70
2024/01/11 00:13:35;;;;;;;23.60;13.68;;;;;;;0.30;41.33;103307.47;4998626;28;96938;-70
2024/01/11 00:16:02;;;;;;;22.95;13.23;;;;;;;0.27;41.63;103303.91;5002435;28;98225;-70
2024/01/11 00:18:29;;;;;;;22.45;13.93;;;;;;;0.27;41.44;103314.47;4999071;28;97279;-70
2024/01/11 00:20:55;;;;;;;24.92;14.13;;;;;;;0.24;41.51;103320.63;4984690;28;97487;-70
2024/01/11 00:23:23;;;;;;;22.38;13.80;;;;;;;0.22;41.47;103313.53;5000686;28;97361;-70
2024/01/11 00:25:49;;;;;;;21.10;12.40;;;;;;;0.19;41.59;103313.50;4992601;28;97604;-70
2024/01/11 00:28:16;;;;;;;22.45;13.43;;;;;;;0.16;41.47;103314.34;4992631;28;98113;-70
2024/01/11 00:30:43;;;;;;;22.55;13.10;;;;;;;0.14;41.73;103312.56;5004741;28;96845;-70
2024/01/11 00:33:10;;;;;;;22.70;13.23;;;;;;;0.13;41.68;103309.03;5004481;28;97027;-69
2024/01/11 00:35:37;;;;;;;20.30;12.40;;;;;;;0.11;41.84;103307.25;4998095;28;98130;-70
2024/01/11 00:38:04;;;;;;;20.75;12.73;;;;;;;0.09;41.80;103312.53;4999246;28;98446;-69
2024/01/11 00:40:31;;;;;;;22.20;13.73;;;;;;;0.06;41.94;103309.84;4998849;28;97070;-70
2024/01/11 00:42:58;;;;;;;22.48;13.77;;;;;;;0.05;41.84;103317.75;4990004;28;97228;-70
2024/01/11 00:45:24;;;;;;;22.45;13.70;;;;;;;0.01;42.00;103319.47;5004032;28;97839;-70
2024/01/11 00:47:51;;;;;;;25.52;14.07;;;;;;;-0.02;42.00;103314.09;5001571;28;97587;-70
2024/01/11 00:50:18;;;;;;;25.55;14.85;;;;;;;-0.06;42.19;103315.81;5000736;28;97238;-70
2024/01/11 00:52:44;;;;;;;21.08;12.65;;;;;;;-0.10;42.10;103315.78;4994241;28;97490;-70
2024/01/11 00:55:12;;;;;;;22.85;12.80;;;;;;;-0.12;42.16;103314.88;5016048;28;97871;-70
2024/01/11 00:57:38;;;;;;;23.77;12.95;;;;;;;-0.15;42.30;103315.72;5001381;28;97704;-69
2024/01/11 01:00:06;;;;;;;21.15;13.23;;;;;;;-0.18;42.39;103318.31;5005729;28;97227;-69
2024/01/11 01:02:33;;;;;;;21.83;13.43;;;;;;;-0.21;42.40;103313.00;5014413;28;97265;-69
2024/01/11 01:04:59;;;;;;;25.77;14.73;;;;;;;-0.23;42.30;103317.38;5002642;28;98332;-70
2024/01/11 01:07:27;;;;;;;23.88;14.20;;;;;;;-0.26;42.44;103329.66;5016377;27;97682;-71
2024/01/11 01:09:54;;;;;;;23.58;13.43;;;;;;;-0.30;42.46;103325.19;4998106;28;97570;-70
2024/01/11 01:12:21;;;;;;;21.25;12.82;;;;;;;-0.32;42.53;103330.44;5011573;27;97047;-70
2024/01/11 01:14:48;;;;;;;20.17;12.40;;;;;;;-0.35;42.72;103322.50;4987888;28;97933;-70
2024/01/11 01:17:14;;;;;;;22.60;13.25;;;;;;;-0.37;42.70;103318.94;5004476;28;98529;-70
2024/01/11 01:19:44;;;;;;;24.20;13.27;;;;;;;-0.39;42.88;103318.03;5002177;28;96885;-70
2024/01/11 01:22:10;;;;;;;22.10;12.27;;;;;;;-0.41;42.81;103317.13;4998775;28;97680;-70
2024/01/11 01:24:37;;;;;;;22.88;12.18;;;;;;;-0.42;42.83;103325.91;4990882;28;97697;-70
2024/01/11 01:27:04;;;;;;;21.35;13.45;;;;;;;-0.44;42.87;103323.25;5001724;28;98456;-70
2024/01/11 01:29:31;;;;;;;19.35;13.55;;;;;;;-0.47;43.10;103331.13;4991775;28;97123;-70
2024/01/11 01:31:57;;;;;;;21.02;12.60;;;;;;;-0.47;43.20;103330.25;4997797;28;97490;-71
2024/01/11 01:34:24;;;;;;;21.55;13.07;;;;;;;-0.49;43.31;103322.31;4992637;28;100047;-70
2024/01/11 01:36:51;;;;;;;19.48;12.63;;;;;;;-0.49;43.30;103318.78;4998904;28;98032;-70
2024/01/11 01:39:18;;;;;;;23.33;14.00;;;;;;;-0.51;43.45;103318.75;5005342;28;97178;-69
2024/01/11 01:41:44;;;;;;;20.48;12.85;;;;;;;-0.52;43.38;103324.91;5001631;28;97064;-70
2024/01/11 01:44:12;;;;;;;20.38;13.07;;;;;;;-0.52;43.57;103339.84;5005030;28;97205;-70
2024/01/11 01:46:39;;;;;;;20.70;12.70;;;;;;;-0.55;43.63;103332.78;4999582;28;97576;-70
2024/01/11 01:49:06;;;;;;;19.02;12.60;;;;;;;-0.57;43.50;103334.50;5021094;27;97034;-70
2024/01/11 01:51:34;;;;;;;17.67;11.52;;;;;;;-0.57;43.52;103336.25;5014168;28;96880;-70
2024/01/11 01:54:02;;;;;;;21.52;13.25;;;;;;;-0.60;43.73;103338.84;5007049;27;97469;-69
2024/01/11 01:56:30;;;;;;;21.27;12.60;;;;;;;-0.61;43.79;103348.53;5005040;28;98714;-70
2024/01/11 01:58:58;;;;;;;23.98;13.27;;;;;;;-0.64;43.93;103348.47;5014175;28;97069;-70
2024/01/11 02:01:27;;;;;;;20.77;12.55;;;;;;;-0.66;44.14;103356.38;4998626;28;97120;-70
2024/01/11 02:03:54;;;;;;;20.40;12.35;;;;;;;-0.69;44.08;103356.31;5007862;28;97775;-70
2024/01/11 02:06:26;;;;;;;19.83;12.65;;;;;;;-0.70;44.02;103349.25;5010792;27;99811;-70
2024/01/11 02:08:53;;;;;;;30.67;14.13;;;;;;;-0.72;43.96;103348.34;5010978;28;97148;-70
2024/01/11 02:11:21;;;;;;;19.80;13.50;;;;;;;-0.74;44.21;103357.09;4999423;28;97400;-70
2024/01/11 02:13:49;;;;;;;21.60;12.85;;;;;;;-0.76;44.00;103350.88;5009280;28;100033;-70
2024/01/11 02:16:15;;;;;;;24.23;13.93;;;;;;;-0.79;44.19;103349.09;5009765;28;97685;-70
2024/01/11 02:18:42;;;;;;;22.63;13.55;;;;;;;-0.80;44.36;103347.31;5010807;28;97353;-70
2024/01/11 02:21:12;;;;;;;19.17;12.52;;;;;;;-0.81;44.50;103350.81;5010803;27;98102;-70
2024/01/11 02:23:46;;;;;;;19.88;12.63;;;;;;;-0.83;44.46;103349.00;5011483;27;97525;-70
2024/01/11 02:26:14;;;;;;;19.85;12.75;;;;;;;-0.86;44.59;103352.50;5017857;28;97584;-70
2024/01/11 02:28:45;;;;;;;23.75;13.63;;;;;;;-0.87;44.56;103356.00;4998200;28;96884;-70
2024/01/11 02:31:14;;;;;;;21.85;13.07;;;;;;;-0.90;44.66;103355.06;5000425;28;97328;-70
2024/01/11 02:33:42;;;;;;;25.15;13.35;;;;;;;-0.92;44.84;103354.16;5001243;27;97698;-70
2024/01/11 02:36:08;;;;;;;23.70;13.73;;;;;;;-0.94;44.79;103364.66;5006661;28;97588;-70
2024/01/11 02:38:36;;;;;;;22.35;13.27;;;;;;;-0.96;44.75;103361.13;5009900;28;96998;-70
2024/01/11 02:41:03;;;;;;;24.20;12.43;;;;;;;-0.99;44.84;103367.22;4993352;28;97647;-70
2024/01/11 02:43:30;;;;;;;20.58;12.43;;;;;;;-1.01;45.06;103354.88;5005659;28;100547;-70
2024/01/11 02:45:58;;;;;;;20.70;13.00;;;;;;;-1.03;45.03;103354.84;5003364;28;98116;-70
2024/01/11 02:48:29;;;;;;;18.52;12.10;;;;;;;-1.03;45.44;103348.69;5006002;28;97089;-70
2024/01/11 02:50:57;;;;;;;21.90;12.95;;;;;;;-1.03;45.41;103346.06;5019001;28;96781;-69
2024/01/11 02:53:24;;;;;;;22.05;12.88;;;;;;;-1.04;45.42;103342.53;5014132;28;97494;-70
2024/01/11 02:55:51;;;;;;;19.55;13.02;;;;;;;-1.06;45.36;103336.34;5019839;27;99943;-70
2024/01/11 02:58:18;;;;;;;21.50;13.27;;;;;;;-1.07;45.46;103345.13;5008005;28;97212;-70
2024/01/11 03:00:45;;;;;;;22.13;14.07;;;;;;;-1.06;45.42;103343.38;5005569;28;97080;-70
2024/01/11 03:03:12;;;;;;;20.10;13.10;;;;;;;-1.05;45.55;103332.84;5007836;28;97756;-70
2024/01/11 03:05:39;;;;;;;25.42;12.80;;;;;;;-1.04;45.61;103334.63;5011729;27;98136;-70
2024/01/11 03:08:06;;;;;;;21.90;13.25;;;;;;;-1.04;45.54;103321.44;5008514;28;99132;-70
2024/01/11 03:10:33;;;;;;;22.42;12.90;;;;;;;-1.02;45.42;103329.38;5013818;28;97898;-70
2024/01/11 03:12:59;;;;;;;21.25;12.63;;;;;;;-1.03;45.60;103333.75;5016655;28;98467;-70
2024/01/11 03:15:26;;;;;;;23.48;13.73;;;;;;;-1.03;45.75;103333.75;5008298;28;97534;-70
2024/01/11 03:17:53;;;;;;;20.65;13.38;;;;;;;-1.04;45.63;103331.97;5011928;28;96978;-70
2024/01/11 03:20:24;;;;;;;23.88;12.90;;;;;;;-1.05;45.68;103338.13;5008814;28;97166;-69
2024/01/11 03:22:54;;;;;;;25.13;13.48;;;;;;;-1.05;45.56;103339.88;5015538;28;98113;-70
2024/01/11 03:25:20;;;;;;;23.75;13.38;;;;;;;-1.06;45.69;103346.00;4990034;28;97390;-70
2024/01/11 03:27:47;;;;;;;22.33;13.65;;;;;;;-1.09;45.92;103349.47;5008018;28;97196;-70
2024/01/11 03:30:14;;;;;;;19.65;13.63;;;;;;;-1.11;45.81;103367.03;4986113;28;97320;-70
2024/01/11 03:32:41;;;;;;;22.65;13.15;;;;;;;-1.13;45.86;103367.84;5012614;28;100563;-70
2024/01/11 03:35:08;;;;;;;23.20;12.65;;;;;;;-1.13;45.93;103368.75;4994155;28;97670;-69
2024/01/11 03:37:35;;;;;;;20.00;12.23;;;;;;;-1.10;45.93;103367.91;4998600;28;97202;-69
2024/01/11 03:40:05;;;;;;;21.10;12.80;;;;;;;-1.08;45.86;103368.81;4996204;28;97124;-69
2024/01/11 03:42:31;;;;;;;20.40;11.77;;;;;;;-1.08;45.89;103364.44;4995776;27;98052;-70
2024/01/11 03:44:58;;;;;;;19.15;11.75;;;;;;;-1.08;45.89;103367.06;5004788;28;100515;-70
2024/01/11 03:47:25;;;;;;;20.08;12.57;;;;;;;-1.08;45.86;103367.06;4997922;28;97102;-70
2024/01/11 03:49:52;;;;;;;24.20;13.55;;;;;;;-1.07;45.88;103363.56;5002886;28;98469;-70
2024/01/11 03:52:18;;;;;;;20.95;12.02;;;;;;;-1.08;45.86;103358.28;4996134;28;98142;-70
2024/01/11 03:54:45;;;;;;;24.48;14.45;;;;;;;-1.08;45.63;103361.81;4996105;28;97523;-70
2024/01/11 03:57:12;;;;;;;23.15;13.90;;;;;;;-1.07;45.71;103368.84;4992670;28;97034;-70
2024/01/11 03:59:40;;;;;;;20.45;12.93;;;;;;;-1.03;46.03;103372.44;4992533;28;97399;-70
2024/01/11 04:02:07;;;;;;;21.67;12.45;;;;;;;-0.99;45.71;103355.78;4997266;28;98109;-70
2024/01/11 04:04:33;;;;;;;22.77;13.20;;;;;;;-0.95;45.85;103352.34;4998091;28;97580;-70
2024/01/11 04:07:00;;;;;;;20.08;12.38;;;;;;;-0.90;45.85;103353.31;4993190;28;97237;-70
2024/01/11 04:09:27;;;;;;;21.80;12.18;;;;;;;-0.85;45.80;103358.66;5003761;28;97797;-70
2024/01/11 04:11:53;;;;;;;22.27;13.25;;;;;;;-0.82;45.97;103391.25;5004226;27;97610;-70
2024/01/11 04:14:21;;;;;;;24.42;13.80;;;;;;;-0.87;45.72;103398.19;5010372;28;97373;-70
2024/01/11 04:16:48;;;;;;;22.45;13.20;;;;;;;-0.95;45.61;103384.00;5009729;28;97302;-70
2024/01/11 04:19:14;;;;;;;20.30;12.95;;;;;;;-1.00;45.80;103376.00;5006766;27;97996;-71
2024/01/11 04:21:43;;;;;;;26.33;12.85;;;;;;;-1.01;45.78;103386.53;5014152;27;98084;-70
2024/01/11 04:24:10;;;;;;;21.00;12.80;;;;;;;-1.04;45.88;103394.38;5012285;28;100158;-69
2024/01/11 04:26:37;;;;;;;23.85;13.68;;;;;;;-1.09;46.06;103386.41;4985332;28;97047;-70
2024/01/11 04:29:04;;;;;;;25.13;14.90;;;;;;;-1.12;46.14;103380.19;5002296;28;97515;-70
2024/01/11 04:31:31;;;;;;;21.20;13.27;;;;;;;-1.14;45.95;103388.06;5011385;28;97692;-70
2024/01/11 04:33:58;;;;;;;24.65;14.90;;;;;;;-1.15;45.98;103391.56;5000431;28;97574;-70
2024/01/11 04:36:24;;;;;;;21.35;13.77;;;;;;;-1.15;45.99;103401.22;5000626;28;96941;-70
2024/01/11 04:38:51;;;;;;;22.92;13.68;;;;;;;-1.16;46.05;103400.34;5011961;28;97191;-69
2024/01/11 04:41:18;;;;;;;25.27;15.15;;;;;;;-1.18;46.35;103395.88;4994686;28;97715;-70
2024/01/11 04:43:45;;;;;;;22.35;13.27;;;;;;;-1.20;46.27;103402.88;4992667;28;98363;-69
2024/01/11 04:46:19;;;;;;;25.52;14.95;;;;;;;-1.21;46.29;103406.38;4995739;28;97257;-69
2024/01/11 04:48:48;;;;;;;27.13;16.17;;;;;;;-1.22;46.14;103404.59;5013729;28;97661;-70
2024/01/11 04:51:18;;;;;;;27.70;16.48;;;;;;;-1.26;46.47;103410.69;5007269;28;100269;-70
2024/01/11 04:53:46;;;;;;;28.13;15.18;;;;;;;-1.30;46.56;103401.81;5010482;28;97838;-70
2024/01/11 04:56:15;;;;;;;23.73;14.88;;;;;;;-1.32;46.53;103408.81;4986694;28;97206;-70
2024/01/11 04:58:44;;;;;;;28.83;17.17;;;;;;;-1.36;46.74;103410.50;4998638;28;97358;-70
2024/01/11 05:01:18;;;;;;;27.30;15.95;;;;;;;-1.39;46.99;103402.53;5000386;28;97927;-69
2024/01/11 05:03:45;;;;;;;29.10;16.83;;;;;;;-1.41;47.03;103399.00;4988317;28;97945;-70
2024/01/11 05:06:17;;;;;;;29.27;15.45;;;;;;;-1.39;47.11;103406.94;4993969;28;97171;-70
2024/01/11 05:08:46;;;;;;;26.27;15.18;;;;;;;-1.35;46.96;103403.50;5013105;27;97283;-70
2024/01/11 05:11:18;;;;;;;24.65;14.70;;;;;;;-1.32;47.10;103411.47;5012963;28;97836;-70
2024/01/11 05:13:48;;;;;;;25.70;15.35;;;;;;;-1.31;47.10;103413.22;5005429;27;98126;-70
2024/01/11 05:16:29;;;;;;;27.00;16.25;;;;;;;-1.32;47.12;103404.44;5005275;28;96985;-70
2024/01/11 05:18:57;;;;;;;28.70;16.33;;;;;;;-1.30;46.81;103405.34;5004276;28;96825;-70
2024/01/11 05:21:24;;;;;;;28.50;18.27;;;;;;;-1.29;46.89;103422.06;5015430;28;100299;-70
2024/01/11 05:23:52;;;;;;;29.83;16.13;;;;;;;-1.33;47.26;103409.69;4994057;28;97606;-70
2024/01/11 05:26:19;;;;;;;28.90;16.90;;;;;;;-1.37;47.22;103397.31;4995960;28;97166;-69
2024/01/11 05:28:46;;;;;;;29.92;17.50;;;;;;;-1.39;47.12;103394.63;5006751;28;97306;-70
2024/01/11 05:31:15;;;;;;;26.73;17.27;;;;;;;-1.41;47.17;103409.53;5002172;28;97475;-70
2024/01/11 05:33:42;;;;;;;26.58;16.02;;;;;;;-1.44;47.39;103409.47;4999211;28;100085;-70
2024/01/11 05:36:10;;;;;;;29.15;16.73;;;;;;;-1.45;47.48;103393.63;4996315;28;97247;-70
2024/01/11 05:38:40;;;;;;;29.35;16.58;;;;;;;-1.46;47.42;103399.75;4999006;28;97264;-70
2024/01/11 05:41:08;;;;;;;28.20;16.67;;;;;;;-1.45;47.31;103399.78;4999744;28;97461;-70
2024/01/11 05:43:35;;;;;;;30.33;17.25;;;;;;;-1.46;47.14;103391.84;5006992;28;97935;-70
2024/01/11 05:46:02;;;;;;;29.33;15.98;;;;;;;-1.45;47.37;103380.47;4996313;28;98008;-70
2024/01/11 05:48:28;;;;;;;29.00;16.85;;;;;;;-1.42;47.27;103391.06;5015178;28;97177;-70
2024/01/11 05:50:55;;;;;;;27.65;17.75;;;;;;;-1.38;47.46;103395.53;5016296;27;97615;-70
2024/01/11 05:53:22;;;;;;;31.83;17.08;;;;;;;-1.34;47.54;103406.16;4995241;28;98054;-70
2024/01/11 05:55:49;;;;;;;30.95;17.27;;;;;;;-1.32;47.41;103401.78;4999710;28;97523;-70
2024/01/11 05:58:19;;;;;;;30.67;17.25;;;;;;;-1.26;47.61;103408.03;5005826;28;97613;-70
2024/01/11 06:00:46;;;;;;;29.05;16.83;;;;;;;-1.23;47.35;103398.44;4992261;27;98369;-70
2024/01/11 06:03:13;;;;;;;27.83;16.13;;;;;;;-1.18;47.41;103395.88;4990914;28;99053;-69
2024/01/11 06:05:40;;;;;;;28.45;17.33;;;;;;;-1.15;47.52;103402.09;4991801;28;98252;-70
2024/01/11 06:08:07;;;;;;;29.90;17.95;;;;;;;-1.12;47.43;103407.44;5003119;28;96965;-69
2024/01/11 06:10:34;;;;;;;29.42;16.83;;;;;;;-1.12;47.45;103411.81;4994894;28;98567;-69
2024/01/11 06:13:01;;;;;;;30.60;16.70;;;;;;;-1.13;47.23;103424.13;4998711;28;97529;-70
2024/01/11 06:15:28;;;;;;;29.00;16.35;;;;;;;-1.12;47.18;103417.97;4998611;28;97335;-69
2024/01/11 06:17:54;;;;;;;27.05;17.13;;;;;;;-1.09;47.16;103432.97;5007766;28;98212;-70
2024/01/11 06:20:21;;;;;;;31.48;17.25;;;;;;;-1.07;47.37;103428.63;4999932;28;97399;-69
2024/01/11 06:22:48;;;;;;;30.00;17.20;;;;;;;-1.05;47.14;103434.81;5004651;28;97667;-70
2024/01/11 06:25:15;;;;;;;27.35;16.33;;;;;;;-1.04;47.08;103436.59;4995671;28;96934;-70
2024/01/11 06:27:43;;;;;;;29.73;17.70;;;;;;;-1.05;47.21;103459.44;5000702;28;97016;-69
2024/01/11 06:30:10;;;;;;;34.50;17.88;;;;;;;-1.04;47.11;103476.13;4995431;28;98020;-69
2024/01/11 06:32:37;;;;;;;30.10;19.02;;;;;;;-1.04;47.19;103491.97;4985902;28;100021;-69
2024/01/11 06:35:05;;;;;;;33.50;20.20;;;;;;;-1.13;47.17;103492.69;5006908;28;97903;-69
2024/01/11 06:37:32;;;;;;;33.88;20.63;;;;;;;-1.24;47.21;103490.69;5005338;28;97246;-69
2024/01/11 06:39:59;;;;;;;31.00;19.17;;;;;;;-1.35;47.60;103482.56;4987827;28;98136;-70
2024/01/11 06:42:25;;;;;;;29.17;18.67;;;;;;;-1.41;47.50;103482.44;4993158;28;98087;-69
2024/01/11 06:44:52;;;;;;;33.63;19.80;;;;;;;-1.40;47.64;103485.13;5004271;28;97337;-70
2024/01/11 06:47:19;;;;;;;33.40;19.50;;;;;;;-1.38;47.67;103475.50;5006575;28;97466;-70
2024/01/11 06:49:46;;;;;;;32.67;18.88;;;;;;;-1.33;47.59;103479.09;5005598;27;97807;-70
2024/01/11 06:52:13;;;;;;;32.95;18.45;;;;;;;-1.29;47.48;103474.78;5002273;28;97755;-69
2024/01/11 06:54:40;;;;;;;29.90;17.65;;;;;;;-1.26;47.48;103484.50;5011461;28;96881;-69
2024/01/11 06:57:06;;;;;;;31.88;18.38;;;;;;;-1.24;47.70;103486.31;5015667;28;97151;-70
2024/01/11 06:59:33;;;;;;;33.65;18.77;;;;;;;-1.21;47.50;103485.47;5011467;28;97616;-69
2024/01/11 07:02:00;;;;;;;31.67;18.70;;;;;;;-1.19;47.70;103491.66;5018994;27;97522;-69
2024/01/11 07:04:27;;;;;;;38.63;19.70;;;;;;;-1.17;47.57;103489.94;5008723;28;98104;-70
2024/01/11 07:06:56;;;;;;;33.75;18.33;;;;;;;-1.15;47.58;103496.16;4996557;28;96946;-70
2024/01/11 07:09:23;;;;;;;31.75;17.98;;;;;;;-1.14;47.58;103504.09;4984552;28;99743;-70
2024/01/11 07:11:50;;;;;;;28.05;18.65;;;;;;;-1.13;47.64;103504.97;4995976;28;97463;-70
2024/01/11 07:14:16;;;;;;;32.80;18.15;;;;;;;-1.14;47.45;103516.38;4987974;28;97038;-70
2024/01/11 07:16:43;;;;;;;34.00;18.73;;;;;;;-1.14;47.54;103505.84;4990207;28;97220;-70
2024/01/11 07:19:11;;;;;;;28.13;17.85;;;;;;;-1.16;47.29;103510.19;4999643;28;98069;-70
2024/01/11 07:21:38;;;;;;;32.00;17.98;;;;;;;-1.17;47.47;103500.50;4995726;28;98266;-70
2024/01/11 07:24:05;;;;;;;33.90;19.05;;;;;;;-1.19;47.51;103495.19;5005592;28;96756;-70
2024/01/11 07:26:32;;;;;;;29.73;17.38;;;;;;;-1.20;47.42;103488.16;5016061;27;97078;-70
2024/01/11 07:28:59;;;;;;;33.15;18.63;;;;;;;-1.20;47.47;103488.16;5011084;28;98604;-70
2024/01/11 07:31:25;;;;;;;34.03;19.10;;;;;;;-1.20;47.46;103490.78;5004497;28;98287;-70
2024/01/11 07:33:52;;;;;;;35.70;19.05;;;;;;;-1.18;47.40;103485.53;5013899;28;97211;-70
2024/01/11 07:36:19;;;;;;;31.15;17.20;;;;;;;-1.19;47.46;103475.84;5013083;28;97092;-70
2024/01/11 07:38:46;;;;;;;32.90;18.70;;;;;;;-1.18;47.62;103473.25;5002153;28;98209;-70
2024/01/11 07:41:13;;;;;;;30.13;18.27;;;;;;;-1.19;47.50;103460.91;4991519;28;97545;-69
2024/01/11 07:43:40;;;;;;;34.00;18.75;;;;;;;-1.18;47.39;103464.44;5003032;28;97254;-70
2024/01/11 07:46:19;;;;;;;33.17;18.60;;;;;;;-1.18;47.48;103472.34;4997148;28;97531;-70
2024/01/11 07:48:59;;;;;;;28.15;17.63;;;;;;;-1.17;47.23;103474.13;4997267;28;97460;-69
2024/01/11 07:51:26;;;;;;;34.70;19.52;;;;;;;-1.16;47.26;103478.53;5001682;28;97950;-70
2024/01/11 07:53:53;;;;;;;37.08;19.02;;;;;;;-1.15;47.18;103475.06;5008420;27;97372;-70
2024/01/11 07:56:20;;;;;;;32.38;19.10;;;;;;;-1.17;47.45;103474.13;5014732;28;97653;-69
2024/01/11 07:58:47;;;;;;;34.67;20.05;;;;;;;-1.16;47.35;103483.81;4995662;28;97631;-69
2024/01/11 08:01:16;;;;;;;33.97;22.38;;;;;;;-1.15;47.38;103480.31;5006201;28;98846;-69
2024/01/11 08:03:45;;;;;;;34.33;20.20;;;;;;;-1.16;47.35;103476.81;5011871;27;97532;-70
2024/01/11 08:06:12;;;;;;;34.80;19.55;;;;;;;-1.15;47.45;103472.41;5014274;28;97337;-69
2024/01/11 08:08:40;;;;;;;35.65;19.83;;;;;;;-1.18;47.36;103462.69;5013144;28;97911;-70
2024/01/11 08:11:07;;;;;;;37.97;21.50;;;;;;;-1.17;47.38;103471.50;5005947;28;97701;-70
2024/01/11 08:13:37;;;;;;;31.63;18.88;;;;;;;-1.18;47.31;103477.63;5007463;28;96763;-70
2024/01/11 08:16:09;;;;;;;37.97;20.80;;;;;;;-1.19;47.54;103474.09;5012420;28;97284;-69
2024/01/11 08:18:36;;;;;;;37.63;20.30;;;;;;;-1.16;47.59;103494.38;5000350;28;98278;-70
2024/01/11 08:21:06;;;;;;;37.00;23.00;;;;;;;-1.16;47.38;103504.91;5013881;28;97674;-70
2024/01/11 08:23:33;;;;;;;38.40;23.50;;;;;;;-1.16;47.37;103497.00;4998000;28;97296;-70
2024/01/11 08:26:00;;;;;;;38.53;21.83;;;;;;;-1.17;47.60;103482.03;5001294;28;97200;-69
2024/01/11 08:28:27;;;;;;;35.17;19.98;;;;;;;-1.17;47.56;103480.28;5012027;27;98121;-70
2024/01/11 08:30:53;;;;;;;38.22;21.52;;;;;;;-1.17;47.71;103476.78;5009258;28;97644;-70
2024/01/11 08:33:20;;;;;;;35.17;20.05;;;;;;;-1.15;47.60;103477.69;5013225;28;97082;-69
2024/01/11 08:35:47;;;;;;;38.55;21.52;;;;;;;-1.14;47.53;103483.00;5005834;28;96934;-70
2024/01/11 08:38:14;;;;;;;36.20;22.23;;;;;;;-1.11;47.76;103490.97;5016919;27;98077;-70
2024/01/11 08:40:41;;;;;;;37.65;22.10;;;;;;;-1.08;47.67;103492.78;5001314;28;97756;-70
2024/01/11 08:43:07;;;;;;;37.22;22.83;;;;;;;-1.05;47.82;103496.34;4989667;28;97375;-70
2024/01/11 08:45:34;;;;;;;40.15;23.55;;;;;;;-1.03;47.48;103499.91;4988722;28;98141;-70
2024/01/11 08:48:04;;;;;;;40.92;23.00;;;;;;;-1.02;47.81;103506.06;5005340;28;97808;-70
2024/01/11 08:50:32;;;;;;;42.15;23.17;;;;;;;-1.00;47.73;103510.53;5004033;28;98129;-70
2024/01/11 08:52:59;;;;;;;39.58;24.15;;;;;;;-0.97;47.76;103512.31;5013575;27;97397;-69
2024/01/11 08:55:26;;;;;;;42.28;25.60;;;;;;;-0.96;47.71;103520.25;4997324;28;96908;-70
2024/01/11 08:57:53;;;;;;;48.33;27.92;;;;;;;-0.94;47.77;103519.41;5006197;28;97744;-69
2024/01/11 09:00:20;;;;;;;48.67;26.35;;;;;;;-0.96;47.84;103528.19;5006628;28;97543;-70
2024/01/11 09:02:46;;;;;;;43.13;26.63;;;;;;;-0.95;47.87;103531.72;5005980;27;97653;-69
2024/01/11 09:05:14;;;;;;;43.40;26.08;;;;;;;-0.97;47.98;103536.06;5011970;28;96961;-70
2024/01/11 09:07:42;;;;;;;38.47;24.05;;;;;;;-0.98;48.10;103540.44;5007441;28;97631;-69
2024/01/11 09:10:09;;;;;;;40.80;24.40;;;;;;;-0.95;48.29;103547.53;4989267;28;97968;-69
2024/01/11 09:12:36;;;;;;;42.20;25.88;;;;;;;-0.93;48.30;103551.09;5011657;28;97297;-69
2024/01/11 09:15:03;;;;;;;44.00;24.33;;;;;;;-0.87;48.46;103551.22;5011666;28;97150;-69
2024/01/11 09:17:30;;;;;;;43.47;26.45;;;;;;;-0.84;48.30;103553.91;5003873;28;98117;-70
2024/01/11 09:19:57;;;;;;;43.95;25.88;;;;;;;-0.79;48.56;103560.16;5008963;28;100849;-69
2024/01/11 09:22:24;;;;;;;39.83;23.50;;;;;;;-0.76;48.47;103554.94;4998413;28;97139;-70
2024/01/11 09:24:51;;;;;;;42.40;24.95;;;;;;;-0.72;48.45;103558.56;5007206;28;96934;-69
2024/01/11 09:27:18;;;;;;;42.28;22.92;;;;;;;-0.66;48.40;103549.00;5013746;28;98438;-70
2024/01/11 09:29:45;;;;;;;39.13;23.77;;;;;;;-0.59;48.40;103551.75;5007187;28;97707;-70
2024/01/11 09:32:12;;;;;;;44.13;25.30;;;;;;;-0.52;48.49;103554.53;5002973;28;97331;-69
2024/01/11 09:34:39;;;;;;;38.50;23.40;;;;;;;-0.44;48.62;103552.03;4998902;28;97241;-69
2024/01/11 09:37:06;;;;;;;40.80;23.45;;;;;;;-0.37;48.46;103559.19;4999913;28;98307;-69
2024/01/11 09:39:33;;;;;;;43.97;25.13;;;;;;;-0.29;48.53;103552.28;4999799;28;97763;-70
2024/01/11 09:42:07;;;;;;;48.03;25.38;;;;;;;-0.22;48.56;103563.84;4991494;28;96924;-69
2024/01/11 09:44:34;;;;;;;42.65;26.58;;;;;;;-0.16;48.55;103566.59;4983457;28;96794;-70
2024/01/11 09:47:02;;;;;;;41.85;24.98;;;;;;;-0.12;48.56;103569.31;5001110;28;97672;-70
2024/01/11 09:49:33;;;;;;;41.08;26.05;;;;;;;-0.07;48.64;103575.56;5016696;28;97743;-70
2024/01/11 09:52:01;;;;;;;39.85;23.90;;;;;;;0.00;48.69;103571.31;5017470;28;97102;-69
2024/01/11 09:54:28;;;;;;;40.33;25.83;;;;;;;0.03;48.78;103571.34;5018640;28;97096;-69
2024/01/11 09:56:58;;;;;;;43.63;26.33;;;;;;;0.09;48.62;103575.84;5010520;28;97494;-70
2024/01/11 09:59:25;;;;;;;43.22;26.25;;;;;;;0.13;48.75;103580.31;5006280;28;100558;-69
2024/01/11 10:01:52;;;;;;;41.00;24.23;;;;;;;0.17;48.90;103584.78;5003414;28;97379;-69
2024/01/11 10:04:20;;;;;;;39.38;23.25;;;;;;;0.24;48.81;103586.66;5011631;28;97481;-69
2024/01/11 10:06:50;;;;;;;38.03;24.15;;;;;;;0.30;48.97;103592.91;4996691;28;99684;-69
2024/01/11 10:09:18;;;;;;;38.97;25.23;;;;;;;0.38;48.79;103592.16;4995361;28;100131;-69
2024/01/11 10:11:44;;;;;;;39.40;25.95;;;;;;;0.44;48.99;103590.47;5030668;27;97610;-69
2024/01/11 10:14:14;;;;;;;42.58;24.83;;;;;;;0.50;49.04;103574.69;5001985;28;97334;-70
2024/01/11 10:16:42;;;;;;;37.25;25.13;;;;;;;0.56;49.02;103590.66;5015827;28;97564;-69
2024/01/11 10:19:10;;;;;;;41.05;25.95;;;;;;;0.62;49.24;103590.75;4998625;28;98134;-69
2024/01/11 10:21:39;;;;;;;42.97;24.92;;;;;;;0.68;49.20;103591.69;5011648;27;97330;-69
2024/01/11 10:24:06;;;;;;;35.85;23.00;;;;;;;0.75;49.35;103589.19;5003786;28;96998;-69
2024/01/11 10:26:32;;;;;;;39.63;24.13;;;;;;;0.81;49.42;103597.19;4999363;28;97896;-69
2024/01/11 10:29:00;;;;;;;39.15;23.13;;;;;;;0.85;49.54;103593.72;5001030;28;98178;-70
2024/01/11 10:31:29;;;;;;;41.72;24.10;;;;;;;0.91;49.57;103600.84;5011552;28;97569;-69
2024/01/11 10:33:57;;;;;;;39.38;23.65;;;;;;;0.99;49.54;103593.91;5010069;27;96893;-69
2024/01/11 10:36:25;;;;;;;40.45;25.48;;;;;;;1.04;49.70;103594.84;5005261;28;97503;-69
2024/01/11 10:38:53;;;;;;;39.72;26.67;;;;;;;1.11;49.72;103593.16;5005764;28;97842;-69
2024/01/11 10:41:20;;;;;;;37.53;22.80;;;;;;;1.13;49.95;103576.44;4994843;28;96950;-70
2024/01/11 10:43:48;;;;;;;36.28;23.58;;;;;;;1.19;50.19;103573.84;4987335;28;97232;-69
2024/01/11 10:46:22;;;;;;;37.22;22.75;;;;;;;1.22;50.20;103573.88;5000002;28;98564;-69
2024/01/11 10:48:55;;;;;;;38.75;23.27;;;;;;;1.27;50.29;103572.19;4996929;28;97620;-69
2024/01/11 10:51:23;;;;;;;31.38;21.60;;;;;;;1.32;50.37;103580.16;4985947;28;96925;-69
2024/01/11 10:53:53;;;;;;;31.75;20.13;;;;;;;1.38;50.79;103574.06;4998696;28;97842;-69
2024/01/11 10:56:20;;;;;;;32.85;21.38;;;;;;;1.41;51.07;103582.03;5001974;28;97895;-69
2024/01/11 10:58:48;;;;;;;33.28;20.30;;;;;;;1.45;51.20;103578.53;5003114;28;99476;-69
2024/01/11 11:01:16;;;;;;;29.67;17.67;;;;;;;1.50;51.65;103587.44;4993480;28;97764;-69
2024/01/11 11:03:45;;;;;;;33.90;19.20;;;;;;;1.53;51.95;103590.13;4994724;28;97246;-70
2024/01/11 11:06:13;;;;;;;31.10;17.83;;;;;;;1.56;52.07;103600.75;5000326;28;97796;-69
2024/01/11 11:08:41;;;;;;;32.30;18.02;;;;;;;1.61;52.19;103598.16;4990761;28;97459;-69
2024/01/11 11:11:09;;;;;;;30.58;18.80;;;;;;;1.64;52.51;103607.03;5001819;28;97370;-69